Time,TemperatureF,DewpointF,PressureIn,WindDirection,WindDirectionDegrees,WindSpeedMPH,WindSpeedGustMPH,Humidity,HourlyPrecipIn,Conditions,Clouds,dailyrainin,SoftwareType,DateUTC
2013-02-08 00:01:00,17.0,14.0,30.15,South,177,2.0,5.0,86,0.00,,,0.00,,2013-02-08 07:01:00,
2013-02-08 00:11:00,17.0,14.0,30.15,South,177,2.0,5.0,86,0.00,,,0.00,,2013-02-08 07:11:00,
2013-02-08 00:21:00,17.0,14.0,30.15,South,177,2.0,4.0,86,0.00,,,0.00,,2013-02-08 07:21:00,
2013-02-08 00:31:00,16.0,13.0,30.15,South,177,0.0,2.0,87,0.00,,,0.00,,2013-02-08 07:31:00,
2013-02-08 00:42:00,15.0,12.0,30.15,South,177,0.0,2.0,86,0.00,,,0.00,,2013-02-08 07:42:00,
2013-02-08 00:51:00,15.0,12.0,30.15,South,177,0.0,2.0,86,0.00,,,0.00,,2013-02-08 07:51:00,
2013-02-08 01:01:00,14.0,11.0,30.15,South,177,0.0,0.0,87,0.00,,,0.00,,2013-02-08 08:01:00,
2013-02-08 01:11:00,14.0,11.0,30.15,South,177,0.0,0.0,88,0.00,,,0.00,,2013-02-08 08:11:00,
2013-02-08 01:21:00,14.0,11.0,30.15,South,177,0.0,0.0,88,0.00,,,0.00,,2013-02-08 08:21:00,
2013-02-08 01:32:00,14.0,11.0,30.15,South,177,0.0,1.0,89,0.00,,,0.00,,2013-02-08 08:32:00,
2013-02-08 01:41:00,14.0,11.0,30.15,South,177,0.0,1.0,89,0.00,,,0.00,,2013-02-08 08:41:00,
2013-02-08 01:52:00,14.0,11.0,30.14,South,177,0.0,2.0,88,0.00,,,0.00,,2013-02-08 08:52:00,
2013-02-08 02:02:00,13.0,10.0,30.14,South,177,0.0,1.0,89,0.00,,,0.00,,2013-02-08 09:02:00,
2013-02-08 02:21:00,13.0,10.0,30.14,South,177,0.0,2.0,88,0.00,,,0.00,,2013-02-08 09:21:00,
2013-02-08 02:31:00,13.0,10.0,30.14,South,177,2.0,3.0,89,0.00,,,0.00,,2013-02-08 09:31:00,
2013-02-08 02:42:00,13.0,10.0,30.14,South,177,2.0,3.0,89,0.00,,,0.00,,2013-02-08 09:42:00,
2013-02-08 02:51:00,12.0,9.0,30.14,South,177,0.0,3.0,88,0.00,,,0.00,,2013-02-08 09:51:00,
2013-02-08 03:01:00,12.0,9.0,30.14,South,177,1.0,4.0,89,0.00,,,0.00,,2013-02-08 10:01:00,
2013-02-08 03:11:00,12.0,9.0,30.14,South,177,1.0,4.0,89,0.00,,,0.00,,2013-02-08 10:11:00,
2013-02-08 03:22:00,12.0,10.0,30.14,South,177,4.0,6.0,90,0.00,,,0.00,,2013-02-08 10:22:00,
2013-02-08 03:31:00,12.0,9.0,30.14,South,177,0.0,6.0,89,0.00,,,0.00,,2013-02-08 10:31:00,
2013-02-08 03:41:00,12.0,9.0,30.14,South,177,0.0,6.0,89,0.00,,,0.00,,2013-02-08 10:41:00,
2013-02-08 03:51:00,12.0,9.0,30.14,South,177,0.0,0.0,88,0.00,,,0.00,,2013-02-08 10:51:00,
2013-02-08 04:01:00,11.0,8.0,30.13,South,177,1.0,3.0,89,0.00,,,0.00,,2013-02-08 11:01:00,
2013-02-08 04:11:00,11.0,8.0,30.13,South,177,1.0,3.0,89,0.00,,,0.00,,2013-02-08 11:11:00,
2013-02-08 04:21:00,11.0,8.0,30.13,South,177,0.0,2.0,89,0.00,,,0.00,,2013-02-08 11:21:00,
2013-02-08 04:32:00,11.0,8.0,30.13,South,177,0.0,3.0,89,0.00,,,0.00,,2013-02-08 11:32:00,
2013-02-08 04:41:00,11.0,8.0,30.13,South,177,0.0,3.0,89,0.00,,,0.00,,2013-02-08 11:41:00,
2013-02-08 04:52:00,11.0,8.0,30.13,South,177,0.0,3.0,89,0.00,,,0.00,,2013-02-08 11:52:00,
2013-02-08 05:01:00,10.0,7.0,30.13,South,177,1.0,3.0,88,0.00,,,0.00,,2013-02-08 12:01:00,
2013-02-08 05:11:00,10.0,7.0,30.13,South,177,1.0,3.0,88,0.00,,,0.00,,2013-02-08 12:11:00,
2013-02-08 05:21:00,10.0,7.0,30.13,South,177,0.0,2.0,88,0.00,,,0.00,,2013-02-08 12:21:00,
2013-02-08 05:32:00,10.0,7.0,30.13,South,177,1.0,4.0,89,0.00,,,0.00,,2013-02-08 12:32:00,
2013-02-08 05:42:00,10.0,7.0,30.13,South,177,1.0,4.0,89,0.00,,,0.00,,2013-02-08 12:42:00,
2013-02-08 05:52:00,9.0,6.0,30.13,South,177,0.0,4.0,88,0.00,,,0.00,,2013-02-08 12:52:00,
2013-02-08 06:01:00,9.0,6.0,30.13,South,177,0.0,0.0,89,0.00,,,0.00,,2013-02-08 13:01:00,
2013-02-08 06:11:00,9.0,6.0,30.13,South,177,0.0,0.0,89,0.00,,,0.00,,2013-02-08 13:11:00,
2013-02-08 06:21:00,10.0,7.0,30.14,South,177,0.0,0.0,89,0.00,,,0.00,,2013-02-08 13:21:00,
2013-02-08 06:32:00,10.0,7.0,30.14,South,177,2.0,6.0,89,0.00,,,0.00,,2013-02-08 13:32:00,
2013-02-08 06:42:00,10.0,7.0,30.14,South,177,2.0,6.0,89,0.00,,,0.00,,2013-02-08 13:42:00,
2013-02-08 06:51:00,10.0,7.0,30.14,South,177,2.0,6.0,89,0.00,,,0.00,,2013-02-08 13:51:00,
2013-02-08 07:01:00,10.0,7.0,30.14,South,177,2.0,5.0,89,0.00,,,0.00,,2013-02-08 14:01:00,
2013-02-08 07:11:00,10.0,7.0,30.14,South,177,2.0,5.0,89,0.00,,,0.00,,2013-02-08 14:11:00,
2013-02-08 07:21:00,10.0,7.0,30.15,South,177,1.0,3.0,89,0.00,,,0.00,,2013-02-08 14:21:00,
2013-02-08 07:32:00,10.0,7.0,30.15,South,177,1.0,4.0,88,0.00,,,0.00,,2013-02-08 14:32:00,
2013-02-08 07:42:00,10.0,7.0,30.15,South,177,1.0,4.0,88,0.00,,,0.00,,2013-02-08 14:42:00,
2013-02-08 07:52:00,10.0,7.0,30.16,South,177,0.0,2.0,89,0.00,,,0.00,,2013-02-08 14:52:00,
2013-02-08 08:01:00,11.0,8.0,30.16,South,177,0.0,2.0,89,0.00,,,0.00,,2013-02-08 15:01:00,
2013-02-08 08:11:00,11.0,8.0,30.16,South,177,0.0,2.0,89,0.00,,,0.00,,2013-02-08 15:11:00,
2013-02-08 08:31:00,10.0,7.0,30.16,South,177,0.0,1.0,88,0.00,,,0.00,,2013-02-08 15:31:00,
2013-02-08 08:41:00,10.0,7.0,30.16,South,177,0.0,1.0,88,0.00,,,0.00,,2013-02-08 15:41:00,
2013-02-08 08:51:00,11.0,8.0,30.16,South,177,0.0,1.0,88,0.00,,,0.00,,2013-02-08 15:51:00,
2013-02-08 09:01:00,12.0,9.0,30.16,South,177,1.0,3.0,87,0.00,,,0.00,,2013-02-08 16:01:00,
2013-02-08 09:11:00,12.0,9.0,30.16,South,177,1.0,3.0,87,0.00,,,0.00,,2013-02-08 16:11:00,
2013-02-08 09:21:00,12.0,9.0,30.16,South,177,2.0,4.0,86,0.00,,,0.00,,2013-02-08 16:21:00,
2013-02-08 09:32:00,13.0,10.0,30.15,South,177,1.0,3.0,86,0.00,,,0.00,,2013-02-08 16:32:00,
2013-02-08 09:41:00,13.0,10.0,30.15,South,177,1.0,3.0,86,0.00,,,0.00,,2013-02-08 16:41:00,
2013-02-08 09:51:00,14.0,11.0,30.16,South,177,1.0,4.0,86,0.00,,,0.00,,2013-02-08 16:51:00,
2013-02-08 10:03:00,16.0,13.0,30.16,South,177,0.0,2.0,86,0.00,,,0.00,,2013-02-08 17:03:00,
2013-02-08 10:11:00,16.0,13.0,30.16,South,177,0.0,2.0,86,0.00,,,0.00,,2013-02-08 17:11:00,
2013-02-08 10:22:00,17.0,13.0,30.16,South,177,0.0,0.0,85,0.00,,,0.00,,2013-02-08 17:22:00,
2013-02-08 10:32:00,19.0,14.0,30.16,South,177,1.0,2.0,80,0.00,,,0.00,,2013-02-08 17:32:00,
2013-02-08 10:42:00,19.0,14.0,30.16,South,177,1.0,2.0,80,0.00,,,0.00,,2013-02-08 17:42:00,
2013-02-08 10:52:00,18.0,13.0,30.15,South,177,1.0,3.0,81,0.00,,,0.00,,2013-02-08 17:52:00,
2013-02-08 11:01:00,18.0,13.0,30.15,South,177,1.0,3.0,81,0.00,,,0.00,,2013-02-08 18:01:00,
2013-02-08 11:11:00,18.0,13.0,30.15,South,177,1.0,3.0,81,0.00,,,0.00,,2013-02-08 18:11:00,
2013-02-08 11:23:00,20.0,15.0,30.15,South,177,0.0,1.0,80,0.00,,,0.00,,2013-02-08 18:23:00,
2013-02-08 11:33:00,23.0,16.0,30.14,South,177,0.0,1.0,74,0.00,,,0.00,,2013-02-08 18:33:00,
2013-02-08 11:43:00,23.0,16.0,30.14,South,177,0.0,1.0,74,0.00,,,0.00,,2013-02-08 18:43:00,
2013-02-08 11:52:00,23.0,16.0,30.14,South,177,0.0,0.0,73,0.00,,,0.00,,2013-02-08 18:52:00,
2013-02-08 12:01:00,25.0,17.0,30.13,South,177,0.0,2.0,71,0.00,,,0.00,,2013-02-08 19:01:00,
2013-02-08 12:11:00,25.0,17.0,30.13,South,177,0.0,2.0,71,0.00,,,0.00,,2013-02-08 19:11:00,
2013-02-08 12:21:00,27.0,18.0,30.12,South,177,0.0,2.0,67,0.00,,,0.00,,2013-02-08 19:21:00,
2013-02-08 12:32:00,28.0,19.0,30.11,South,177,0.0,2.0,69,0.00,,,0.00,,2013-02-08 19:32:00,
2013-02-08 12:42:00,28.0,19.0,30.11,South,177,0.0,2.0,69,0.00,,,0.00,,2013-02-08 19:42:00,
2013-02-08 12:52:00,28.0,19.0,30.11,South,177,0.0,2.0,69,0.00,,,0.00,,2013-02-08 19:52:00,
2013-02-08 13:01:00,27.0,18.0,30.09,SSE,157,1.0,4.0,69,0.00,,,0.00,,2013-02-08 20:01:00,
2013-02-08 13:11:00,27.0,18.0,30.09,SSE,157,1.0,4.0,69,0.00,,,0.00,,2013-02-08 20:11:00,
2013-02-08 13:21:00,27.0,18.0,30.08,SSE,157,2.0,6.0,69,0.00,,,0.00,,2013-02-08 20:21:00,
2013-02-08 13:31:00,29.0,19.0,30.07,SSE,157,0.0,2.0,67,0.00,,,0.00,,2013-02-08 20:31:00,
2013-02-08 13:41:00,29.0,19.0,30.07,SSE,157,0.0,2.0,67,0.00,,,0.00,,2013-02-08 20:41:00,
2013-02-08 13:52:00,32.0,20.0,30.07,SSE,157,0.0,2.0,62,0.00,,,0.00,,2013-02-08 20:52:00,
2013-02-08 14:01:00,33.0,21.0,30.06,SSE,157,0.0,2.0,62,0.00,,,0.00,,2013-02-08 21:01:00,
2013-02-08 14:11:00,33.0,21.0,30.06,SSE,157,0.0,2.0,62,0.00,,,0.00,,2013-02-08 21:11:00,
2013-02-08 14:21:00,32.0,20.0,30.05,SSE,157,0.0,4.0,62,0.00,,,0.00,,2013-02-08 21:21:00,
2013-02-08 14:32:00,34.0,22.0,30.04,SSE,157,0.0,0.0,61,0.00,,,0.00,,2013-02-08 21:32:00,
2013-02-08 14:42:00,34.0,22.0,30.04,SSE,157,0.0,0.0,61,0.00,,,0.00,,2013-02-08 21:42:00,
2013-02-08 14:52:00,36.0,22.0,30.03,SSE,157,0.0,1.0,56,0.00,,,0.00,,2013-02-08 21:52:00,
2013-02-08 15:01:00,35.0,21.0,30.03,SSE,157,0.0,2.0,56,0.01,,,0.01,,2013-02-08 22:01:00,
2013-02-08 15:11:00,35.0,21.0,30.03,SSE,157,0.0,2.0,56,0.01,,,0.01,,2013-02-08 22:11:00,
2013-02-08 15:21:00,34.0,21.0,30.02,SSE,157,1.0,3.0,58,0.01,,,0.01,,2013-02-08 22:21:00,
2013-02-08 15:31:00,34.0,21.0,30.02,SSE,157,0.0,2.0,59,0.01,,,0.01,,2013-02-08 22:31:00,
2013-02-08 15:42:00,34.0,21.0,30.02,SSE,157,0.0,2.0,59,0.01,,,0.01,,2013-02-08 22:42:00,
2013-02-08 15:51:00,35.0,22.0,30.03,SSE,157,0.0,2.0,58,0.01,,,0.01,,2013-02-08 22:51:00,
2013-02-08 16:01:00,34.0,22.0,30.03,SSE,157,0.0,2.0,60,0.00,,,0.01,,2013-02-08 23:01:00,
2013-02-08 16:11:00,34.0,22.0,30.03,SSE,157,0.0,2.0,60,0.00,,,0.01,,2013-02-08 23:11:00,
2013-02-08 16:21:00,33.0,22.0,30.03,SSE,157,0.0,2.0,63,0.00,,,0.01,,2013-02-08 23:21:00,
2013-02-08 16:31:00,32.0,21.0,30.02,SSE,157,0.0,2.0,64,0.00,,,0.01,,2013-02-08 23:31:00,
2013-02-08 16:41:00,32.0,21.0,30.02,SSE,157,0.0,2.0,64,0.00,,,0.01,,2013-02-08 23:41:00,
2013-02-08 16:52:00,32.0,22.0,30.02,SSE,157,0.0,2.0,65,0.00,,,0.01,,2013-02-08 23:52:00,
2013-02-08 17:01:00,31.0,21.0,30.02,SSE,157,0.0,2.0,66,0.00,,,0.01,,2013-02-09 00:01:00,
2013-02-08 17:11:00,31.0,21.0,30.02,SSE,157,0.0,2.0,66,0.00,,,0.01,,2013-02-09 00:11:00,
2013-02-08 17:21:00,30.0,21.0,30.03,SSE,157,1.0,4.0,68,0.00,,,0.01,,2013-02-09 00:21:00,
2013-02-08 17:31:00,29.0,21.0,30.03,SSE,157,0.0,4.0,72,0.00,,,0.01,,2013-02-09 00:31:00,
2013-02-08 17:41:00,29.0,21.0,30.03,SSE,157,0.0,4.0,72,0.00,,,0.01,,2013-02-09 00:41:00,
2013-02-08 17:52:00,28.0,20.0,30.03,SSE,157,0.0,3.0,73,0.00,,,0.01,,2013-02-09 00:52:00,
2013-02-08 18:01:00,28.0,21.0,30.03,SSE,157,0.0,2.0,76,0.00,,,0.01,,2013-02-09 01:01:00,
2013-02-08 18:11:00,28.0,21.0,30.03,SSE,157,0.0,2.0,76,0.00,,,0.01,,2013-02-09 01:11:00,
2013-02-08 18:21:00,27.0,21.0,30.03,SSE,157,0.0,0.0,77,0.00,,,0.01,,2013-02-09 01:21:00,
2013-02-08 18:31:00,27.0,21.0,30.04,SSE,157,0.0,2.0,78,0.00,,,0.01,,2013-02-09 01:31:00,
2013-02-08 18:41:00,27.0,21.0,30.04,SSE,157,0.0,2.0,78,0.00,,,0.01,,2013-02-09 01:41:00,
2013-02-08 18:52:00,27.0,21.0,30.04,SSE,157,0.0,2.0,79,0.00,,,0.01,,2013-02-09 01:52:00,
2013-02-08 19:01:00,26.0,21.0,30.04,SSE,157,1.0,3.0,80,0.00,,,0.01,,2013-02-09 02:01:00,
2013-02-08 19:11:00,26.0,21.0,30.04,SSE,157,1.0,3.0,80,0.00,,,0.01,,2013-02-09 02:11:00,
2013-02-08 19:21:00,26.0,20.0,30.04,SSE,157,0.0,2.0,79,0.00,,,0.01,,2013-02-09 02:21:00,
2013-02-08 19:32:00,25.0,20.0,30.04,SSE,157,0.0,4.0,80,0.00,,,0.01,,2013-02-09 02:32:00,
2013-02-08 19:41:00,25.0,20.0,30.04,SSE,157,0.0,4.0,80,0.00,,,0.01,,2013-02-09 02:41:00,
2013-02-08 19:52:00,25.0,20.0,30.03,SSE,157,1.0,3.0,80,0.00,,,0.01,,2013-02-09 02:52:00,
2013-02-08 20:01:00,25.0,20.0,30.03,SSE,157,0.0,2.0,81,0.00,,,0.01,,2013-02-09 03:01:00,
2013-02-08 20:11:00,25.0,20.0,30.03,SSE,157,0.0,2.0,81,0.00,,,0.01,,2013-02-09 03:11:00,
2013-02-08 20:21:00,24.0,19.0,30.03,SSE,157,0.0,2.0,80,0.00,,,0.01,,2013-02-09 03:21:00,
2013-02-08 20:32:00,24.0,19.0,30.04,SSE,157,0.0,2.0,81,0.00,,,0.01,,2013-02-09 03:32:00,
2013-02-08 20:41:00,24.0,19.0,30.04,SSE,157,0.0,2.0,81,0.00,,,0.01,,2013-02-09 03:41:00,
2013-02-08 20:51:00,23.0,18.0,30.04,SSE,157,1.0,5.0,82,0.00,,,0.01,,2013-02-09 03:51:00,
2013-02-08 21:02:00,23.0,18.0,30.04,SSE,157,3.0,6.0,82,0.00,,,0.01,,2013-02-09 04:02:00,
2013-02-08 21:11:00,23.0,18.0,30.04,SSE,157,2.0,4.0,81,0.00,,,0.01,,2013-02-09 04:11:00,
2013-02-08 21:22:00,23.0,18.0,30.04,SSE,157,2.0,4.0,81,0.00,,,0.01,,2013-02-09 04:22:00,
2013-02-08 21:31:00,23.0,19.0,30.04,SSE,157,1.0,3.0,83,0.00,,,0.01,,2013-02-09 04:31:00,
2013-02-08 21:42:00,23.0,19.0,30.04,SSE,157,1.0,3.0,83,0.00,,,0.01,,2013-02-09 04:42:00,
2013-02-08 21:51:00,23.0,19.0,30.05,SSE,157,0.0,2.0,83,0.00,,,0.01,,2013-02-09 04:51:00,
2013-02-08 22:02:00,23.0,18.0,30.06,SSE,157,1.0,4.0,82,0.00,,,0.01,,2013-02-09 05:02:00,
2013-02-08 22:12:00,23.0,18.0,30.06,SSE,157,1.0,4.0,82,0.00,,,0.01,,2013-02-09 05:12:00,
2013-02-08 22:22:00,22.0,18.0,30.06,SSE,157,1.0,5.0,84,0.00,,,0.01,,2013-02-09 05:22:00,
2013-02-08 22:31:00,23.0,18.0,30.06,SSE,157,4.0,7.0,81,0.00,,,0.01,,2013-02-09 05:31:00,
2013-02-08 22:41:00,23.0,18.0,30.06,SSE,157,4.0,7.0,81,0.00,,,0.01,,2013-02-09 05:41:00,
2013-02-08 22:52:00,23.0,18.0,30.06,SSE,157,3.0,7.0,82,0.00,,,0.01,,2013-02-09 05:52:00,
2013-02-08 23:01:00,24.0,19.0,30.06,SSE,157,3.0,7.0,82,0.00,,,0.01,,2013-02-09 06:01:00,
2013-02-08 23:11:00,24.0,19.0,30.06,SSE,157,3.0,7.0,82,0.00,,,0.01,,2013-02-09 06:11:00,
2013-02-08 23:21:00,24.0,19.0,30.06,SSE,157,3.0,7.0,82,0.00,,,0.01,,2013-02-09 06:21:00,
2013-02-08 23:31:00,23.0,18.0,30.06,SSE,157,0.0,4.0,81,0.00,,,0.01,,2013-02-09 06:31:00,
2013-02-08 23:42:00,23.0,18.0,30.06,SSE,157,0.0,4.0,81,0.00,,,0.01,,2013-02-09 06:42:00,
2013-02-08 23:52:00,22.0,17.0,30.06,SSE,157,1.0,3.0,81,0.00,,,0.01,,2013-02-09 06:52:00,